createdAt,value
2022-09-02T00:01:37.597Z,12.95
2022-09-02T00:04:08.376Z,11.82
2022-09-02T00:06:36.226Z,12.32
2022-09-02T00:09:05.994Z,11.60
2022-09-02T00:11:33.720Z,12.05
2022-09-02T00:14:03.889Z,12.02
2022-09-02T00:16:31.957Z,11.88
2022-09-02T00:18:59.843Z,11.80
2022-09-02T00:21:26.759Z,10.65
2022-09-02T00:23:53.641Z,11.50
2022-09-02T00:26:21.063Z,11.48
2022-09-02T00:28:55.758Z,10.63
2022-09-02T00:31:23.656Z,10.98
2022-09-02T00:33:52.041Z,11.15
2022-09-02T00:36:18.600Z,10.75
2022-09-02T00:38:45.206Z,11.10
2022-09-02T00:41:12.175Z,10.95
2022-09-02T00:43:44.154Z,10.20
2022-09-02T00:46:13.264Z,11.13
2022-09-02T00:48:46.347Z,10.13
2022-09-02T00:51:14.471Z,11.10
2022-09-02T00:53:44.474Z,9.98
2022-09-02T00:56:17.152Z,10.30
2022-09-02T01:01:11.804Z,10.05
2022-09-02T01:03:40.159Z,9.68
2022-09-02T01:06:07.794Z,10.07
2022-09-02T01:08:38.192Z,10.10
2022-09-02T01:11:06.491Z,10.23
2022-09-02T01:13:37.782Z,10.23
2022-09-02T01:16:12.077Z,9.40
2022-09-02T01:18:39.564Z,9.48
2022-09-02T01:21:06.370Z,9.40
2022-09-02T01:23:34.833Z,9.80
2022-09-02T01:26:01.814Z,9.50
2022-09-02T01:28:28.400Z,9.27
2022-09-02T01:30:55.337Z,8.73
2022-09-02T01:33:25.240Z,9.40
2022-09-02T01:35:53.143Z,8.93
2022-09-02T01:38:20.342Z,9.32
2022-09-02T01:40:47.097Z,9.32
2022-09-02T01:43:22.052Z,8.82
2022-09-02T01:45:50.757Z,8.68
2022-09-02T01:48:21.793Z,8.60
2022-09-02T01:50:54.808Z,8.80
2022-09-02T01:53:21.378Z,8.82
2022-09-02T01:55:48.309Z,8.27
2022-09-02T01:58:15.192Z,8.27
2022-09-02T02:00:41.873Z,8.25
2022-09-02T02:03:08.622Z,8.52
2022-09-02T02:05:35.691Z,8.43
2022-09-02T02:08:02.400Z,7.85
2022-09-02T02:10:30.343Z,7.53
2022-09-02T02:12:56.909Z,8.52
2022-09-02T02:17:49.102Z,8.20
2022-09-02T02:20:17.605Z,7.95
2022-09-02T02:22:44.330Z,7.47
2022-09-02T02:25:11.638Z,8.07
2022-09-02T02:27:38.190Z,7.25
2022-09-02T02:30:07.161Z,7.70
2022-09-02T02:32:33.913Z,7.55
2022-09-02T02:35:00.487Z,7.50
2022-09-02T02:37:26.964Z,8.32
2022-09-02T02:39:53.930Z,7.25
2022-09-02T02:42:20.989Z,7.47
2022-09-02T02:44:47.450Z,7.20
2022-09-02T02:47:14.235Z,7.20
2022-09-02T02:49:43.226Z,7.03
2022-09-02T02:52:11.720Z,7.22
2022-09-02T02:54:39.327Z,6.82
2022-09-02T02:57:06.952Z,7.28
2022-09-02T02:59:33.611Z,7.03
2022-09-02T03:02:00.251Z,7.65
2022-09-02T03:04:26.842Z,6.45
2022-09-02T03:06:53.444Z,6.75
2022-09-02T03:09:20.436Z,6.43
2022-09-02T03:11:47.835Z,6.10
2022-09-02T03:14:14.649Z,6.65
2022-09-02T03:16:41.255Z,6.32
2022-09-02T03:19:07.921Z,6.20
2022-09-02T03:21:39.284Z,6.50
2022-09-02T03:24:06.535Z,6.30
2022-09-02T03:26:33.066Z,5.95
2022-09-02T03:28:59.636Z,5.93
2022-09-02T03:31:28.357Z,5.70
2022-09-02T03:33:55.647Z,6.10
2022-09-02T03:36:24.924Z,6.43
2022-09-02T03:38:51.794Z,6.10
2022-09-02T03:41:18.344Z,5.97
2022-09-02T03:43:44.811Z,5.75
2022-09-02T03:46:11.501Z,6.07
2022-09-02T03:48:38.184Z,5.32
2022-09-02T03:51:05.651Z,5.75
2022-09-02T03:53:32.390Z,5.72
2022-09-02T03:56:05.191Z,5.60
2022-09-02T03:58:31.700Z,5.60
2022-09-02T04:00:58.703Z,5.95
2022-09-02T04:03:25.432Z,5.30
2022-09-02T04:05:52.478Z,5.60
2022-09-02T04:08:19.844Z,5.00
2022-09-02T04:10:46.702Z,5.50
2022-09-02T04:13:13.269Z,5.40
2022-09-02T04:15:44.280Z,5.20
2022-09-02T04:18:12.518Z,4.88
2022-09-02T04:20:40.181Z,5.45
2022-09-02T04:23:08.442Z,5.20
2022-09-02T04:25:39.873Z,4.90
2022-09-02T04:28:06.355Z,5.07
2022-09-02T04:30:32.834Z,4.95
2022-09-02T04:32:59.311Z,5.18
2022-09-02T04:35:25.827Z,5.25
2022-09-02T04:37:52.438Z,5.03
2022-09-02T04:40:19.244Z,4.47
2022-09-02T04:42:47.246Z,4.93
2022-09-02T04:45:14.557Z,4.50
2022-09-02T04:47:41.083Z,4.80
2022-09-02T04:50:07.874Z,4.82
2022-09-02T04:52:34.410Z,4.72
2022-09-02T04:55:00.933Z,4.93
2022-09-02T04:57:27.456Z,4.40
2022-09-02T04:59:54.012Z,4.80
2022-09-02T05:02:20.820Z,4.75
2022-09-02T05:04:47.451Z,4.20
2022-09-02T05:07:14.123Z,4.70
2022-09-02T05:09:40.641Z,4.72
2022-09-02T05:12:07.464Z,4.28
2022-09-02T05:14:33.939Z,4.40
2022-09-02T05:17:05.195Z,4.70
2022-09-02T05:19:33.999Z,4.57
2022-09-02T05:22:01.806Z,4.55
2022-09-02T05:24:29.597Z,4.40
2022-09-02T05:26:56.133Z,4.53
2022-09-02T05:29:23.802Z,4.53
2022-09-02T05:31:50.374Z,3.90
2022-09-02T05:34:18.005Z,3.80
2022-09-02T05:36:44.652Z,3.70
2022-09-02T05:39:11.300Z,4.15
2022-09-02T05:41:37.871Z,4.40
2022-09-02T05:44:05.578Z,4.28
2022-09-02T05:46:32.780Z,3.97
2022-09-02T05:49:18.003Z,3.83
2022-09-02T05:51:50.752Z,3.92
2022-09-02T05:54:18.779Z,3.92
2022-09-02T05:56:46.818Z,4.30
2022-09-02T05:59:14.079Z,3.90
2022-09-02T06:01:40.871Z,3.85
2022-09-02T06:04:07.686Z,4.13
2022-09-02T06:06:35.871Z,3.85
2022-09-02T06:09:04.268Z,3.83
2022-09-02T06:11:30.730Z,3.80
2022-09-02T06:13:57.424Z,3.50
2022-09-02T06:16:24.032Z,3.60
2022-09-02T06:18:50.876Z,3.42
2022-09-02T06:21:18.791Z,3.83
2022-09-02T06:23:45.980Z,3.60
2022-09-02T06:26:13.493Z,3.60
2022-09-02T06:28:41.120Z,3.70
2022-09-02T06:31:15.284Z,3.80
2022-09-02T06:33:43.879Z,3.55
2022-09-02T06:36:13.673Z,3.15
2022-09-02T06:38:45.851Z,3.33
2022-09-02T06:41:18.799Z,3.53
2022-09-02T06:46:18.663Z,3.45
2022-09-02T06:51:24.085Z,3.80
2022-09-02T06:53:50.725Z,3.40
2022-09-02T06:56:17.903Z,3.60
2022-09-02T06:58:45.965Z,3.28
2022-09-02T07:01:27.948Z,3.30
2022-09-02T07:04:13.126Z,3.57
2022-09-02T07:06:42.880Z,3.13
2022-09-02T07:09:11.497Z,3.47
2022-09-02T07:11:38.443Z,3.03
2022-09-02T07:14:06.025Z,3.00
2022-09-02T07:16:36.813Z,3.35
2022-09-02T07:19:05.661Z,3.53
2022-09-02T07:21:36.304Z,3.13
2022-09-02T07:24:03.159Z,3.53
2022-09-02T07:26:29.866Z,3.50
2022-09-02T07:28:56.575Z,3.70
2022-09-02T07:31:23.391Z,4.57
2022-09-02T07:33:50.561Z,4.70
2022-09-02T07:36:21.461Z,5.03
2022-09-02T07:38:48.584Z,5.03
2022-09-02T07:41:15.032Z,5.40
2022-09-02T07:43:42.329Z,5.82
2022-09-02T07:46:08.966Z,11.82
2022-09-02T07:48:35.875Z,24.58
2022-09-02T07:51:03.825Z,35.38
2022-09-02T07:53:32.339Z,36.40
2022-09-02T07:55:59.609Z,54.88
2022-09-02T07:58:28.127Z,65.65
2022-09-02T08:00:57.500Z,75.68
2022-09-02T08:03:25.663Z,92.38
2022-09-02T08:05:52.857Z,93.43
2022-09-02T08:08:20.469Z,100.63
2022-09-02T08:10:51.272Z,99.05
2022-09-02T08:13:18.264Z,100.38
2022-09-02T08:15:45.739Z,102.90
2022-09-02T08:18:22.276Z,105.15
2022-09-02T08:20:49.450Z,111.95
2022-09-02T08:23:19.660Z,81.03
2022-09-02T08:26:00.825Z,87.30
2022-09-02T08:28:31.859Z,95.75
2022-09-02T08:30:59.455Z,80.15
2022-09-02T08:33:26.477Z,64.15
2022-09-02T08:35:53.257Z,80.50
2022-09-02T08:38:21.894Z,98.00
2022-09-02T08:40:51.031Z,86.90
2022-09-02T08:43:30.346Z,95.30
2022-09-02T08:46:05.241Z,110.63
2022-09-02T08:48:39.394Z,103.82
2022-09-02T08:51:10.284Z,111.03
2022-09-02T08:53:40.364Z,112.95
2022-09-02T08:56:11.308Z,123.78
2022-09-02T08:58:44.070Z,111.70
2022-09-02T09:01:16.765Z,142.98
2022-09-02T09:04:05.026Z,128.77
2022-09-02T09:07:00.656Z,127.82
2022-09-02T09:09:43.942Z,124.47
2022-09-02T09:12:15.291Z,135.52
2022-09-02T09:15:11.865Z,155.52
2022-09-02T09:17:48.624Z,142.73
2022-09-02T09:20:24.909Z,143.90
2022-09-02T09:22:56.647Z,140.63
2022-09-02T09:25:30.235Z,147.52
2022-09-02T09:28:00.622Z,153.82
2022-09-02T09:30:29.041Z,164.40
2022-09-02T09:32:59.842Z,160.07
2022-09-02T09:35:29.040Z,149.27
2022-09-02T09:37:56.164Z,145.23
2022-09-02T09:40:31.277Z,144.75
2022-09-02T09:43:05.630Z,145.57
2022-09-02T09:45:45.149Z,145.75
2022-09-02T09:48:31.643Z,142.48
2022-09-02T09:50:58.122Z,140.45
2022-09-02T09:53:25.933Z,137.82
2022-09-02T09:56:09.258Z,150.15
2022-09-02T09:58:41.559Z,159.95
2022-09-02T10:01:19.927Z,166.07
2022-09-02T10:03:49.242Z,158.60
2022-09-02T10:06:38.113Z,165.13
2022-09-02T10:09:25.269Z,169.35
2022-09-02T10:11:59.155Z,177.30
2022-09-02T10:14:33.433Z,173.40
2022-09-02T10:17:10.932Z,186.07
2022-09-02T10:19:40.458Z,201.27
2022-09-02T10:22:37.907Z,205.68
2022-09-02T10:25:39.869Z,181.52
2022-09-02T10:28:27.465Z,188.68
2022-09-02T10:31:08.786Z,213.50
2022-09-02T10:34:03.702Z,180.18
2022-09-02T10:36:37.972Z,185.50
2022-09-02T10:39:30.547Z,191.65
2022-09-02T10:42:10.320Z,178.30
2022-09-02T10:45:17.922Z,150.52
2022-09-02T10:47:56.932Z,113.25
2022-09-02T10:50:39.857Z,103.78
2022-09-02T10:53:37.212Z,78.53
2022-09-02T10:56:08.309Z,16.85
2022-09-02T10:58:40.865Z,3.42
2022-09-02T11:01:10.753Z,1.30
2022-09-02T11:03:37.397Z,1.30
2022-09-02T11:06:11.990Z,1.60
2022-09-02T11:08:41.508Z,2.20
2022-09-02T11:11:21.282Z,1.40
2022-09-02T11:14:09.396Z,1.60
2022-09-02T11:16:57.745Z,1.40
2022-09-02T11:19:30.240Z,1.40
2022-09-02T11:25:02.734Z,0.82
2022-09-02T11:27:43.108Z,0.70
2022-09-02T11:30:22.392Z,0.85
2022-09-02T11:33:14.453Z,1.17
2022-09-02T11:35:44.981Z,1.10
2022-09-02T11:38:29.833Z,1.60
2022-09-02T11:44:27.038Z,1.90
2022-09-02T11:47:37.692Z,2.53
2022-09-02T11:50:16.492Z,2.67
2022-09-02T11:53:10.392Z,2.60
2022-09-02T11:55:41.276Z,2.80
2022-09-02T11:58:08.163Z,2.53
2022-09-02T12:01:01.488Z,3.00
2022-09-02T12:03:52.094Z,3.28
2022-09-02T12:06:19.552Z,2.47
2022-09-02T12:08:47.122Z,2.13
2022-09-02T12:11:39.867Z,1.67
2022-09-02T12:14:11.900Z,1.50
2022-09-02T12:16:42.836Z,1.42
2022-09-02T12:19:10.769Z,1.25
2022-09-02T12:22:15.337Z,1.20
2022-09-02T12:24:52.170Z,0.90
2022-09-02T12:27:28.565Z,1.33
2022-09-02T12:29:57.177Z,1.05
2022-09-02T12:32:43.889Z,1.27
2022-09-02T12:35:13.764Z,1.25
2022-09-02T12:37:57.669Z,1.90
2022-09-02T12:40:32.531Z,5.45
2022-09-02T12:43:03.558Z,7.60
2022-09-02T12:45:35.531Z,6.50
2022-09-02T12:48:18.949Z,6.63
2022-09-02T12:51:04.380Z,6.60
2022-09-02T12:53:45.806Z,6.15
2022-09-02T12:56:22.737Z,6.05
2022-09-02T12:58:52.552Z,6.18
2022-09-02T13:01:51.873Z,5.28
2022-09-02T13:04:24.856Z,5.78
2022-09-02T13:07:10.624Z,5.47
2022-09-02T13:09:54.693Z,5.40
2022-09-02T13:12:39.610Z,5.10
2022-09-02T13:15:23.836Z,5.05
2022-09-02T13:18:38.096Z,4.93
2022-09-02T13:21:11.216Z,5.53
2022-09-02T13:23:45.744Z,5.00
2022-09-02T13:26:22.843Z,4.93
2022-09-02T13:29:17.770Z,4.85
2022-09-02T13:32:18.420Z,4.47
2022-09-02T13:34:47.553Z,5.97
2022-09-02T13:37:36.633Z,5.13
2022-09-02T13:40:25.734Z,5.22
2022-09-02T13:42:58.338Z,4.60
2022-09-02T13:45:27.173Z,4.45
2022-09-02T13:47:59.206Z,5.25
2022-09-02T13:50:27.962Z,4.63
2022-09-02T13:55:57.548Z,4.60
2022-09-02T13:58:34.603Z,4.70
2022-09-02T14:01:23.397Z,4.38
2022-09-02T14:03:53.226Z,5.82
2022-09-02T14:06:29.354Z,4.40
2022-09-02T14:09:00.005Z,4.05
2022-09-02T14:11:28.091Z,3.92
2022-09-02T14:13:56.166Z,4.28
2022-09-02T14:16:27.092Z,4.30
2022-09-02T14:19:25.759Z,4.28
2022-09-02T14:21:57.622Z,4.20
2022-09-02T14:24:39.609Z,3.80
2022-09-02T14:27:19.072Z,4.25
2022-09-02T14:29:49.128Z,4.30
2022-09-02T14:32:22.945Z,4.07
2022-09-02T14:35:08.404Z,4.53
2022-09-02T14:37:46.953Z,4.07
2022-09-02T14:40:13.453Z,4.03
2022-09-02T14:42:52.638Z,4.15
2022-09-02T14:45:45.325Z,4.00
2022-09-02T14:48:36.319Z,3.78
2022-09-02T14:51:06.422Z,4.13
2022-09-02T14:53:36.534Z,3.50
2022-09-02T14:56:03.911Z,3.35
2022-09-02T14:58:30.479Z,3.25
2022-09-02T15:00:59.903Z,3.90
2022-09-02T15:03:27.401Z,3.63
2022-09-02T15:05:53.987Z,3.72
2022-09-02T15:08:21.175Z,3.20
2022-09-02T15:10:48.773Z,3.38
2022-09-02T15:13:30.495Z,3.33
2022-09-02T15:15:57.219Z,3.60
2022-09-02T15:18:24.082Z,3.13
2022-09-02T15:20:51.375Z,3.40
2022-09-02T15:23:18.320Z,3.25
2022-09-02T15:25:44.901Z,3.50
2022-09-02T15:28:11.427Z,3.50
2022-09-02T15:30:38.019Z,3.10
2022-09-02T15:33:05.783Z,3.15
2022-09-02T15:35:34.091Z,2.90
2022-09-02T15:38:09.656Z,3.60
2022-09-02T15:40:39.216Z,2.97
2022-09-02T15:43:08.507Z,3.78
2022-09-02T15:45:35.248Z,3.53
2022-09-02T15:48:02.049Z,3.17
2022-09-02T15:50:32.214Z,3.13
2022-09-02T15:52:58.771Z,3.05
2022-09-02T15:55:29.520Z,2.97
2022-09-02T15:57:56.360Z,3.00
2022-09-02T16:00:22.982Z,2.92
2022-09-02T16:02:54.689Z,2.90
2022-09-02T16:05:21.489Z,3.05
2022-09-02T16:07:48.543Z,2.72
2022-09-02T16:10:15.300Z,2.92
2022-09-02T16:12:42.167Z,3.13
2022-09-02T16:15:09.177Z,3.08
2022-09-02T16:17:36.286Z,3.05
2022-09-02T16:20:04.201Z,2.88
2022-09-02T16:22:30.671Z,3.08
2022-09-02T16:24:57.138Z,2.58
2022-09-02T16:27:43.615Z,2.90
2022-09-02T16:30:10.477Z,2.83
2022-09-02T16:32:37.842Z,3.13
2022-09-02T16:35:04.575Z,2.75
2022-09-02T16:37:31.067Z,2.60
2022-09-02T16:39:57.589Z,3.13
2022-09-02T16:42:24.670Z,3.10
2022-09-02T16:44:51.853Z,2.65
2022-09-02T16:47:18.565Z,2.80
2022-09-02T16:49:46.281Z,2.70
2022-09-02T16:52:12.899Z,2.33
2022-09-02T16:54:41.016Z,2.95
2022-09-02T16:57:08.189Z,3.42
2022-09-02T16:59:34.701Z,2.33
2022-09-02T17:02:01.435Z,2.67
2022-09-02T17:04:28.040Z,2.55
2022-09-02T17:06:56.329Z,2.17
2022-09-02T17:09:22.802Z,2.50
2022-09-02T17:11:49.333Z,2.50
2022-09-02T17:14:18.094Z,2.47
2022-09-02T17:16:47.811Z,2.60
2022-09-02T17:19:20.882Z,2.33
2022-09-02T17:21:52.202Z,2.58
2022-09-02T17:24:21.912Z,2.38
2022-09-02T17:26:54.244Z,2.75
2022-09-02T17:32:09.517Z,2.63
2022-09-02T17:34:37.083Z,2.20
2022-09-02T17:37:05.315Z,2.38
2022-09-02T17:39:33.794Z,2.47
2022-09-02T17:42:00.787Z,2.30
2022-09-02T17:44:33.532Z,2.25
2022-09-02T17:47:00.800Z,2.10
2022-09-02T17:49:28.490Z,2.35
2022-09-02T17:51:55.201Z,2.40
2022-09-02T17:54:22.727Z,2.28
2022-09-02T17:56:54.985Z,2.35
2022-09-02T17:59:46.328Z,2.22
2022-09-02T18:02:33.353Z,2.38
2022-09-02T18:05:29.122Z,1.92
2022-09-02T18:08:08.789Z,2.30
2022-09-02T18:10:39.145Z,2.30
2022-09-02T18:13:09.566Z,1.80
2022-09-02T18:15:59.302Z,2.05
2022-09-02T18:18:28.253Z,1.73
2022-09-02T18:21:03.749Z,2.00
2022-09-02T18:23:41.576Z,2.00
2022-09-02T18:26:30.323Z,1.90
2022-09-02T18:29:08.944Z,2.08
2022-09-02T18:31:54.445Z,2.15
2022-09-02T18:34:30.690Z,2.00
2022-09-02T18:37:13.454Z,2.22
2022-09-02T18:39:48.757Z,2.20
2022-09-02T18:42:24.661Z,1.50
2022-09-02T18:45:09.430Z,1.90
2022-09-02T18:47:53.004Z,2.10
2022-09-02T18:50:49.978Z,2.13
2022-09-02T18:53:22.094Z,1.70
2022-09-02T18:55:49.123Z,1.90
2022-09-02T18:58:37.917Z,1.60
2022-09-02T19:01:15.767Z,1.98
2022-09-02T19:03:42.363Z,1.98
2022-09-02T19:06:17.110Z,1.80
2022-09-02T19:08:45.518Z,1.90
2022-09-02T19:11:14.259Z,2.15
2022-09-02T19:13:52.935Z,2.00
2022-09-02T19:16:26.293Z,1.92
2022-09-02T19:18:53.767Z,1.75
2022-09-02T19:21:34.295Z,1.80
2022-09-02T19:24:06.941Z,1.60
2022-09-02T19:29:04.869Z,1.77
2022-09-02T19:31:34.587Z,1.75
2022-09-02T19:34:04.478Z,1.90
2022-09-02T19:36:32.983Z,1.70
2022-09-02T19:39:00.124Z,1.70
2022-09-02T19:41:28.137Z,1.90
2022-09-02T19:43:55.111Z,1.90
2022-09-02T19:47:04.055Z,1.65
2022-09-02T19:49:09.251Z,1.50
2022-09-02T19:51:36.347Z,1.63
2022-09-02T19:54:03.270Z,1.63
2022-09-02T19:56:29.870Z,1.58
2022-09-02T19:58:56.558Z,1.67
2022-09-02T20:01:23.269Z,1.67
2022-09-02T20:03:51.592Z,1.30
2022-09-02T20:06:18.183Z,1.58
2022-09-02T20:08:44.754Z,1.67
2022-09-02T20:11:11.236Z,1.50
2022-09-02T20:13:41.372Z,1.38
2022-09-02T20:16:17.168Z,1.45
2022-09-02T20:18:46.780Z,1.40
2022-09-02T20:21:19.411Z,1.23
2022-09-02T20:26:24.025Z,1.20
2022-09-02T20:29:24.119Z,1.40
2022-09-02T20:31:52.601Z,1.50
2022-09-02T20:34:55.783Z,1.50
2022-09-02T20:37:54.856Z,1.63
2022-09-02T20:40:45.963Z,1.58
2022-09-02T20:43:27.174Z,1.65
2022-09-02T20:46:18.538Z,1.50
2022-09-02T20:49:12.676Z,1.15
2022-09-02T20:51:41.403Z,1.67
2022-09-02T20:54:30.885Z,1.50
2022-09-02T20:56:57.458Z,1.20
2022-09-02T20:59:48.493Z,1.50
2022-09-02T21:02:19.734Z,1.40
2022-09-02T21:04:52.939Z,1.27
2022-09-02T21:07:26.430Z,1.05
2022-09-02T21:10:21.190Z,1.40
2022-09-02T21:13:02.384Z,1.35
2022-09-02T21:15:33.256Z,1.23
2022-09-02T21:18:30.312Z,1.45
2022-09-02T21:21:03.382Z,1.48
2022-09-02T21:23:38.888Z,1.23
2022-09-02T21:26:19.124Z,1.20
2022-09-02T21:29:01.537Z,1.38
2022-09-02T21:31:37.438Z,1.73
2022-09-02T21:34:23.088Z,1.20
2022-09-02T21:36:54.382Z,1.30
2022-09-02T21:39:23.353Z,1.38
2022-09-02T21:42:10.884Z,1.48
2022-09-02T21:44:58.593Z,1.13
2022-09-02T21:47:48.570Z,1.20
2022-09-02T21:50:23.921Z,1.27
2022-09-02T21:53:03.522Z,1.45
2022-09-02T21:56:00.652Z,1.10
2022-09-02T21:58:48.747Z,1.45
2022-09-02T22:01:55.851Z,1.10
2022-09-02T22:04:51.553Z,1.17
2022-09-02T22:07:42.004Z,1.30
2022-09-02T22:10:20.609Z,1.33
2022-09-02T22:12:52.673Z,1.20
2022-09-02T22:15:28.286Z,1.13
2022-09-02T22:18:23.622Z,1.67
2022-09-02T22:20:55.667Z,1.10
2022-09-02T22:23:25.668Z,1.10
2022-09-02T22:25:55.278Z,1.20
2022-09-02T22:28:31.306Z,1.30
2022-09-02T22:31:01.652Z,1.50
2022-09-02T22:33:33.932Z,1.20
2022-09-02T22:36:18.427Z,1.20
2022-09-02T22:38:48.781Z,0.98
2022-09-02T22:41:24.664Z,1.23
2022-09-02T22:43:53.857Z,1.17
2022-09-02T22:46:46.642Z,1.30
2022-09-02T22:49:49.565Z,0.95
2022-09-02T22:52:49.389Z,1.33
2022-09-02T22:55:39.186Z,1.00
2022-09-02T22:58:39.691Z,1.15
2022-09-02T23:01:31.623Z,1.20
2022-09-02T23:04:25.027Z,1.23
2022-09-02T23:07:05.347Z,1.10
2022-09-02T23:09:39.475Z,1.05
2022-09-02T23:12:45.774Z,1.23
2022-09-02T23:15:20.748Z,1.38
2022-09-02T23:17:57.845Z,1.00
2022-09-02T23:20:49.791Z,1.17
2022-09-02T23:23:44.297Z,0.90
2022-09-02T23:26:45.115Z,1.10
2022-09-02T23:29:24.061Z,0.90
2022-09-02T23:32:03.862Z,1.05
2022-09-02T23:34:30.905Z,0.95
2022-09-02T23:37:26.868Z,0.85
2022-09-02T23:39:58.499Z,0.98
2022-09-02T23:42:25.361Z,1.02
2022-09-02T23:44:59.030Z,1.08
2022-09-02T23:47:37.747Z,0.82
2022-09-02T23:50:21.065Z,1.05
2022-09-02T23:53:09.229Z,1.08
2022-09-02T23:55:58.311Z,1.20
2022-09-02T23:58:40.049Z,0.90
